Time;durP1;ratioP1;P1;durP2;ratioP2;P2;SDS_P1;SDS_P2;PMS_P1;PMS_P2;Temp;Humidity;BMP_temperature;BMP_pressure;BME280_temperature;BME280_humidity;BME280_pressure;Samples;Min_cycle;Max_cycle;Signal;HPM_P1;HPM_P2
2022/12/21 08:00:34;;;;;;;10.35;3.60;;;;;;;7.14;100.00;98790.91;5118257;27;20947;-80
2022/12/21 08:03:01;;;;;;;6.35;3.85;;;;;;;7.30;100.00;98808.97;5126413;28;20088;-81
2022/12/21 08:05:28;;;;;;;8.65;4.00;;;;;;;7.28;100.00;98786.66;5111119;28;20044;-81
2022/12/21 08:08:00;;;;;;;8.27;3.78;;;;;;;7.50;100.00;98808.56;5128264;27;20035;-81
2022/12/21 08:10:27;;;;;;;5.85;3.78;;;;;;;7.37;100.00;98799.13;5124536;27;20078;-81
2022/12/21 08:12:54;;;;;;;5.90;3.60;;;;;;;7.42;100.00;98823.81;5127753;27;20043;-81
2022/12/21 08:15:21;;;;;;;6.70;4.03;;;;;;;7.50;100.00;98817.53;5129025;28;20039;-81
2022/12/21 08:17:51;;;;;;;7.65;3.70;;;;;;;7.64;100.00;98821.38;5127814;27;20047;-81
2022/12/21 08:20:17;;;;;;;4.18;2.92;;;;;;;7.56;100.00;98814.13;5126603;27;20453;-81
2022/12/21 08:22:44;;;;;;;18.27;4.85;;;;;;;7.56;100.00;98829.53;5126855;28;20040;-81
2022/12/21 08:25:11;;;;;;;11.65;3.58;;;;;;;7.64;100.00;98826.78;5128000;27;20047;-82
2022/12/21 08:27:38;;;;;;;9.18;3.55;;;;;;;7.65;100.00;98828.47;5128116;27;20043;-81
2022/12/21 08:30:06;;;;;;;8.18;3.40;;;;;;;7.52;100.00;98812.78;5128708;28;20055;-81
2022/12/21 08:32:33;;;;;;;4.47;2.75;;;;;;;7.62;100.00;98828.84;5124395;27;20051;-81
2022/12/21 08:35:01;;;;;;;7.80;3.20;;;;;;;7.66;100.00;98822.03;5122605;28;20495;-81
2022/12/21 08:37:27;;;;;;;6.70;3.22;;;;;;;7.64;100.00;98821.38;5120293;27;20065;-82
2022/12/21 08:39:54;;;;;;;7.20;3.22;;;;;;;7.73;100.00;98824.91;5128195;27;20500;-81
2022/12/21 08:42:20;;;;;;;4.68;3.03;;;;;;;7.73;100.00;98830.31;5127064;27;20048;-82
2022/12/21 08:44:48;;;;;;;6.40;2.88;;;;;;;7.62;100.00;98821.56;5125328;28;20054;-82
2022/12/21 08:47:14;;;;;;;7.18;3.50;;;;;;;7.79;100.00;98835.84;5128064;28;20043;-82
2022/12/21 08:49:41;;;;;;;4.40;2.45;;;;;;;7.70;100.00;98817.13;5106650;28;20516;-82
2022/12/21 08:52:09;;;;;;;5.65;3.25;;;;;;;7.72;100.00;98824.06;5103991;28;20538;-81
2022/12/21 08:54:35;;;;;;;5.47;2.90;;;;;;;7.79;100.00;98832.31;5107846;28;20052;-82
2022/12/21 08:57:02;;;;;;;5.60;3.00;;;;;;;7.74;100.00;98832.84;5107468;28;20060;-81
2022/12/21 08:59:29;;;;;;;8.85;2.92;;;;;;;7.83;100.00;98840.91;5101935;28;20515;-82
2022/12/21 09:01:55;;;;;;;5.13;3.03;;;;;;;7.94;100.00;98843.25;5103116;28;20047;-81
2022/12/21 09:04:22;;;;;;;9.23;3.30;;;;;;;7.97;100.00;98848.31;5105944;28;20513;-82
2022/12/21 09:06:48;;;;;;;6.25;3.00;;;;;;;7.91;100.00;98830.06;5107590;28;20044;-82
2022/12/21 09:09:16;;;;;;;6.93;3.55;;;;;;;7.96;100.00;98830.38;5107277;28;20055;-82
2022/12/21 09:11:43;;;;;;;7.60;2.72;;;;;;;7.87;100.00;98817.91;5094617;28;20044;-82
2022/12/21 09:14:09;;;;;;;8.73;2.90;;;;;;;7.87;100.00;98817.91;5090352;28;20044;-82
2022/12/21 09:16:36;;;;;;;5.45;2.65;;;;;;;7.92;100.00;98842.59;5092931;28;20398;-82
2022/12/21 09:19:05;;;;;;;6.95;2.90;;;;;;;8.02;100.00;98842.38;5090145;28;20566;-82
2022/12/21 09:21:35;;;;;;;5.57;2.83;;;;;;;8.04;100.00;98845.72;5094478;28;20044;-82
2022/12/21 09:24:01;;;;;;;7.72;3.50;;;;;;;8.15;100.00;98854.31;5091753;28;20044;-82
2022/12/21 09:26:29;;;;;;;7.70;3.45;;;;;;;8.13;100.00;98850.09;5085346;28;20050;-82
2022/12/21 09:28:56;;;;;;;7.82;2.80;;;;;;;8.04;100.00;98829.47;5091765;28;20399;-82
2022/12/21 09:31:23;;;;;;;6.47;3.28;;;;;;;8.15;100.00;98850.78;5093259;28;20056;-82
2022/12/21 09:33:50;;;;;;;6.25;2.90;;;;;;;8.06;100.00;98843.72;5089174;28;20060;-82
2022/12/21 09:36:19;;;;;;;5.57;2.80;;;;;;;8.18;100.00;98855.00;5090972;28;20117;-82
2022/12/21 09:38:45;;;;;;;5.97;2.70;;;;;;;8.07;100.00;98843.53;5093496;28;20047;-82
2022/12/21 09:41:32;;;;;;;7.25;3.08;;;;;;;8.13;100.00;98852.81;5093247;28;20425;-82
2022/12/21 09:44:14;;;;;;;9.45;3.28;;;;;;;8.11;100.00;98846.72;5092421;28;20674;-82
2022/12/21 09:46:43;;;;;;;3.88;2.78;;;;;;;8.12;100.00;98840.28;5093367;28;20083;-82
2022/12/21 09:49:18;;;;;;;4.80;2.90;;;;;;;8.11;100.00;98839.47;5091292;28;20055;-82
2022/12/21 09:51:51;;;;;;;7.95;2.65;;;;;;;8.06;100.00;98830.19;5091632;28;20131;-82
2022/12/21 09:54:21;;;;;;;5.22;3.22;;;;;;;8.09;100.00;98836.06;5090889;28;20048;-82
2022/12/21 09:56:52;;;;;;;5.45;2.90;;;;;;;8.18;100.00;98830.63;5088515;28;20044;-82
2022/12/21 09:59:21;;;;;;;8.10;3.03;;;;;;;8.29;100.00;98870.81;5093331;28;20044;-82
2022/12/21 10:02:30;;;;;;;8.98;2.95;;;;;;;8.31;100.00;98866.09;5095113;28;20056;-82
2022/12/21 10:05:30;;;;;;;3.58;2.53;;;;;;;8.33;100.00;98853.22;5081830;28;20503;-83
2022/12/21 10:08:37;;;;;;;4.63;2.80;;;;;;;8.45;100.00;98853.69;5077396;28;20044;-82
2022/12/21 10:11:13;;;;;;;6.65;3.30;;;;;;;8.54;100.00;98852.59;5089886;28;20052;-81
2022/12/21 10:13:45;;;;;;;5.70;2.60;;;;;;;8.57;100.00;98852.25;5092820;28;20413;-82
2022/12/21 10:16:24;;;;;;;5.40;2.85;;;;;;;8.48;100.00;98843.31;5092817;28;20054;-82
2022/12/21 10:19:02;;;;;;;7.55;3.05;;;;;;;8.58;100.00;98851.22;5093157;28;20119;-81
2022/12/21 10:21:44;;;;;;;8.65;2.78;;;;;;;8.68;100.00;98842.84;5079763;28;20066;-81
2022/12/21 10:24:21;;;;;;;10.63;3.60;;;;;;;8.53;100.00;98826.53;5092947;28;20071;-82
2022/12/21 10:26:52;;;;;;;6.10;2.55;;;;;;;8.67;100.00;98852.84;5090249;28;20048;-82
2022/12/21 10:29:24;;;;;;;6.47;2.33;;;;;;;8.58;100.00;98839.53;5093119;28;20063;-81
2022/12/21 10:31:55;;;;;;;2.92;2.33;;;;;;;8.70;100.00;98845.38;5093942;28;20058;-82
2022/12/21 10:34:25;;;;;;;4.70;3.00;;;;;;;8.69;100.00;98860.81;5093510;28;20063;-81
2022/12/21 10:36:57;;;;;;;5.90;2.50;;;;;;;8.68;100.00;98859.94;5084957;28;20131;-81
2022/12/21 10:39:24;;;;;;;5.07;2.72;;;;;;;8.62;100.00;98855.25;5093594;28;20051;-81
2022/12/21 10:41:54;;;;;;;4.25;2.47;;;;;;;8.52;100.00;98851.09;5093900;28;20071;-82
2022/12/21 10:44:20;;;;;;;;;;;;;;;8.61;100.00;98863.56;5093178;28;20562;-81
2022/12/21 10:46:47;;;;;;;5.85;2.15;;;;;;;8.51;100.00;98850.25;5086085;28;19935;-82
2022/12/21 10:49:22;;;;;;;3.00;2.38;;;;;;;8.62;100.00;98866.09;5089965;28;20833;-81
2022/12/21 10:51:48;;;;;;;6.07;2.75;;;;;;;8.50;100.00;98862.09;5079018;28;20044;-82
2022/12/21 10:54:24;;;;;;;6.28;2.63;;;;;;;8.65;100.00;98867.59;5091365;28;20575;-81
2022/12/21 10:56:52;;;;;;;7.45;3.00;;;;;;;8.81;100.00;98866.66;5089824;28;20491;-81
2022/12/21 10:59:22;;;;;;;4.75;2.90;;;;;;;8.83;100.00;98857.28;5092620;28;20047;-81
2022/12/21 11:01:49;;;;;;;4.75;2.72;;;;;;;8.91;100.00;98845.53;5093084;28;20040;-82
2022/12/21 11:04:28;;;;;;;5.25;3.05;;;;;;;8.94;100.00;98830.78;5090058;28;20056;-81
2022/12/21 11:07:01;;;;;;;4.00;2.72;;;;;;;8.89;100.00;98823.19;5093018;28;20122;-82
2022/12/21 11:09:35;;;;;;;9.13;3.03;;;;;;;8.94;100.00;98828.94;5086872;28;20051;-81
2022/12/21 11:12:15;;;;;;;6.65;2.65;;;;;;;9.08;100.00;98840.84;5090224;28;20052;-81
2022/12/21 11:14:41;;;;;;;5.45;2.83;;;;;;;9.07;100.00;98824.75;5086290;28;20491;-81
2022/12/21 11:17:18;;;;;;;5.43;3.28;;;;;;;9.27;100.00;98822.34;5092378;28;20135;-81
2022/12/21 11:19:47;;;;;;;6.75;3.35;;;;;;;9.39;100.00;98810.00;5089204;28;20051;-81
2022/12/21 11:22:16;;;;;;;6.90;3.40;;;;;;;9.56;100.00;98821.56;5092409;28;20502;-81
2022/12/21 11:24:44;;;;;;;5.28;2.72;;;;;;;9.68;100.00;98816.47;5091866;28;20047;-82
2022/12/21 11:27:24;;;;;;;8.23;2.95;;;;;;;9.93;100.00;98836.03;5091934;28;20090;-82
2022/12/21 11:29:54;;;;;;;5.40;2.50;;;;;;;9.92;100.00;98829.75;5090493;28;20047;-82
2022/12/21 11:32:21;;;;;;;;;;;;;;;9.96;100.00;98835.66;5092362;28;20044;-82
2022/12/21 11:34:53;;;;;;;4.05;2.47;;;;;;;9.87;100.00;98829.47;5090285;28;20015;-83
2022/12/21 11:37:31;;;;;;;8.70;2.90;;;;;;;9.74;100.00;98819.28;5090768;28;20068;-82
2022/12/21 11:39:59;;;;;;;5.13;3.20;;;;;;;9.79;100.00;98823.31;5088120;28;20101;-82
2022/12/21 11:42:29;;;;;;;5.22;2.30;;;;;;;9.82;100.00;98829.22;5092149;28;20462;-81
2022/12/21 11:45:18;;;;;;;5.45;3.08;;;;;;;9.68;100.00;98798.34;5083313;28;20526;-81
2022/12/21 11:48:01;;;;;;;7.57;2.33;;;;;;;9.75;100.00;98822.84;5092534;28;20048;-82
2022/12/21 11:50:53;;;;;;;5.80;2.20;;;;;;;9.70;100.00;98809.00;5092343;28;20501;-82
2022/12/21 11:53:37;;;;;;;7.18;2.80;;;;;;;9.72;100.00;98809.63;5087017;28;20366;-82
2022/12/21 11:56:23;;;;;;;5.43;2.65;;;;;;;9.87;100.00;98815.91;5087941;28;20290;-81
2022/12/21 11:59:18;;;;;;;9.20;2.88;;;;;;;9.74;100.00;98783.16;5089373;28;20124;-82
2022/12/21 12:01:58;;;;;;;6.28;2.38;;;;;;;9.75;100.00;98801.13;5100636;28;20072;-82
2022/12/21 12:04:35;;;;;;;;;;;;;;;9.80;100.00;98804.13;5081357;28;20395;-82
2022/12/21 12:07:22;;;;;;;5.25;2.70;;;;;;;9.60;100.00;98784.00;5088583;28;19924;-82
2022/12/21 12:13:23;;;;;;;5.32;2.60;;;;;;;9.71;100.00;98806.09;5077266;28;20058;-82
2022/12/21 12:15:58;;;;;;;2.85;1.95;;;;;;;9.65;100.00;98781.56;5092792;28;20044;-82
2022/12/21 12:18:41;;;;;;;3.58;2.45;;;;;;;9.73;100.00;98805.91;5092310;28;20414;-81
2022/12/21 12:21:32;;;;;;;5.72;3.17;;;;;;;9.65;100.00;98797.84;5091818;28;20122;-82
2022/12/21 12:24:33;;;;;;;6.88;2.63;;;;;;;9.65;100.00;98792.41;5091692;28;20093;-81
2022/12/21 12:27:11;;;;;;;5.85;2.70;;;;;;;9.55;100.00;98809.84;5092014;28;20502;-81
2022/12/21 12:29:53;;;;;;;3.53;2.30;;;;;;;9.52;100.00;98777.66;5091816;28;20454;-82
2022/12/21 12:32:33;;;;;;;5.90;2.92;;;;;;;9.57;100.00;98768.94;5090345;28;20052;-82
2022/12/21 12:35:18;;;;;;;6.10;2.15;;;;;;;9.73;100.00;98787.75;5091881;28;20044;-82
2022/12/21 12:37:56;;;;;;;6.28;2.40;;;;;;;9.80;100.00;98787.84;5091963;28;20131;-81
2022/12/21 12:40:35;;;;;;;6.53;2.53;;;;;;;9.78;100.00;98757.31;5091148;28;20052;-82
2022/12/21 12:43:14;;;;;;;6.07;2.33;;;;;;;9.78;100.00;98761.91;5099468;28;20445;-82
2022/12/21 12:45:55;;;;;;;5.90;2.08;;;;;;;9.92;100.00;98770.03;5086160;28;20147;-82
2022/12/21 12:48:32;;;;;;;9.07;2.60;;;;;;;9.99;100.00;98777.41;5095411;28;20048;-82
2022/12/21 12:51:09;;;;;;;4.63;2.10;;;;;;;9.91;100.00;98772.94;5094421;28;20060;-82
2022/12/21 12:53:42;;;;;;;4.80;1.98;;;;;;;9.82;100.00;98764.03;5085884;28;20132;-82
2022/12/21 12:56:20;;;;;;;3.33;2.08;;;;;;;9.94;100.00;98769.00;5082983;28;20044;-82
2022/12/21 12:58:55;;;;;;;2.83;1.92;;;;;;;9.82;100.00;98750.47;5091920;28;20062;-82
2022/12/21 13:01:31;;;;;;;3.03;2.05;;;;;;;9.99;100.00;98777.41;5089602;28;20048;-82
2022/12/21 13:04:31;;;;;;;3.22;2.30;;;;;;;9.96;100.00;98761.50;5083795;28;20368;-82
2022/12/21 13:07:02;;;;;;;4.40;2.45;;;;;;;9.92;100.00;98737.44;5087494;28;20479;-80
2022/12/21 13:09:42;;;;;;;3.00;2.15;;;;;;;9.95;100.00;98763.38;5089009;28;20039;-84
2022/12/21 13:12:26;;;;;;;3.97;2.30;;;;;;;10.07;100.00;98763.69;5096163;28;20137;-88
2022/12/21 13:14:59;;;;;;;4.05;2.50;;;;;;;10.01;100.00;98751.75;5094754;28;20135;-81
2022/12/21 13:17:32;;;;;;;5.68;2.03;;;;;;;9.89;100.00;98742.41;5092253;28;20047;-81
2022/12/21 13:20:03;;;;;;;9.70;2.40;;;;;;;10.02;100.00;98766.16;5091981;28;20051;-81
2022/12/21 13:22:34;;;;;;;3.10;2.00;;;;;;;9.96;100.00;98772.38;5084416;28;20440;-81
2022/12/21 13:25:05;;;;;;;2.10;1.80;;;;;;;9.91;100.00;98770.22;5093772;28;20056;-81
2022/12/21 13:27:41;;;;;;;4.88;2.05;;;;;;;9.91;100.00;98773.75;5093271;28;20051;-81
2022/12/21 13:30:14;;;;;;;4.75;1.95;;;;;;;9.88;100.00;98770.59;5092691;28;20067;-81
2022/12/21 13:32:45;;;;;;;3.85;1.85;;;;;;;9.71;100.00;98750.94;5092551;28;20055;-81
2022/12/21 13:35:19;;;;;;;4.18;2.10;;;;;;;9.69;100.00;98753.84;5093339;28;20048;-81
2022/12/21 13:37:52;;;;;;;3.15;2.17;;;;;;;9.62;100.00;98755.66;5091930;28;20406;-81
2022/12/21 13:40:25;;;;;;;4.38;2.25;;;;;;;9.49;100.00;98748.16;5092962;28;20051;-81
2022/12/21 13:42:59;;;;;;;5.45;2.22;;;;;;;9.52;100.00;98764.06;5099453;28;20050;-81
2022/12/21 13:45:34;;;;;;;6.80;1.90;;;;;;;9.56;100.00;98773.53;5091567;28;20495;-81
2022/12/21 13:48:05;;;;;;;2.88;2.03;;;;;;;9.42;100.00;98757.25;5087250;28;20475;-81
2022/12/21 13:50:39;;;;;;;4.50;2.28;;;;;;;9.58;100.00;98762.50;5093439;28;20079;-81
2022/12/21 13:53:15;;;;;;;5.03;2.15;;;;;;;9.56;100.00;98751.81;5088655;28;20720;-81
2022/12/21 13:55:48;;;;;;;5.45;2.92;;;;;;;9.75;100.00;98757.69;5087556;28;20059;-81
2022/12/21 13:58:27;;;;;;;4.97;2.63;;;;;;;9.57;100.00;98734.53;5094148;28;20048;-81
2022/12/21 14:01:00;;;;;;;3.42;2.40;;;;;;;9.62;100.00;98765.66;5093513;28;20044;-81
2022/12/21 14:03:35;;;;;;;4.97;2.72;;;;;;;9.50;100.00;98733.59;5091679;28;20052;-81
2022/12/21 14:06:23;;;;;;;5.97;2.55;;;;;;;9.53;100.00;98754.09;5092433;28;20048;-81
2022/12/21 14:09:06;;;;;;;5.30;3.03;;;;;;;9.51;100.00;98737.13;5091125;28;20052;-81
2022/12/21 14:11:48;;;;;;;3.75;2.60;;;;;;;9.55;100.00;98725.72;5085386;28;20048;-80
2022/12/21 14:14:44;;;;;;;3.17;2.33;;;;;;;9.54;100.00;98740.31;5080635;28;20044;-81
2022/12/21 14:17:18;;;;;;;5.85;2.17;;;;;;;9.53;100.00;98729.66;5091535;28;20048;-81
2022/12/21 14:19:52;;;;;;;6.10;2.00;;;;;;;9.61;100.00;98759.41;5100417;28;20044;-81
2022/12/21 14:22:36;;;;;;;3.08;2.03;;;;;;;9.51;100.00;98727.09;5093434;28;20052;-80
2022/12/21 14:25:08;;;;;;;3.63;2.03;;;;;;;9.59;100.00;98741.59;5092447;28;20044;-81
2022/12/21 14:27:35;;;;;;;2.72;2.00;;;;;;;9.54;100.00;98756.59;5088286;28;20043;-81
2022/12/21 14:30:15;;;;;;;3.00;1.67;;;;;;;9.32;100.00;98728.53;5091699;28;20036;-80
2022/12/21 14:32:42;;;;;;;2.38;1.95;;;;;;;9.35;100.00;98732.75;5083905;28;20059;-80
2022/12/21 14:35:25;;;;;;;4.18;1.60;;;;;;;9.52;100.00;98753.22;5088936;28;20056;-81
2022/12/21 14:38:11;;;;;;;3.95;2.08;;;;;;;9.29;100.00;98728.06;5081989;28;20101;-81
2022/12/21 14:41:00;;;;;;;3.10;1.55;;;;;;;9.23;100.00;98716.09;5088569;28;20070;-80
2022/12/21 14:43:26;;;;;;;2.25;1.52;;;;;;;9.28;100.00;98731.81;5086818;28;20138;-80
2022/12/21 14:45:55;;;;;;;5.55;2.05;;;;;;;9.33;100.00;98715.81;5087694;28;20437;-81
2022/12/21 14:48:47;;;;;;;5.13;1.73;;;;;;;9.28;100.00;98719.09;5082922;28;20577;-81
2022/12/21 14:51:52;;;;;;;2.38;1.45;;;;;;;9.30;100.00;98732.47;5093157;28;20048;-80
2022/12/21 14:54:38;;;;;;;2.35;1.48;;;;;;;9.15;100.00;98716.19;5088043;28;20052;-80
2022/12/21 14:57:23;;;;;;;2.15;1.38;;;;;;;9.26;100.00;98737.44;5072875;28;20049;-79
2022/12/21 15:00:01;;;;;;;3.10;1.75;;;;;;;9.15;100.00;98727.91;5086313;28;20490;-80
2022/12/21 15:02:36;;;;;;;3.25;1.73;;;;;;;9.36;100.00;98739.84;5085148;28;20051;-80
2022/12/21 15:05:15;;;;;;;7.32;1.35;;;;;;;9.25;100.00;98733.03;5088714;28;20559;-79
2022/12/21 15:07:47;;;;;;;2.78;1.42;;;;;;;9.25;100.00;98716.75;5085529;28;20048;-80
2022/12/21 15:10:22;;;;;;;6.63;2.22;;;;;;;9.25;100.00;98724.06;5092305;28;20048;-80
2022/12/21 15:12:50;;;;;;;4.30;1.52;;;;;;;9.26;100.00;98723.00;5090042;28;20055;-80
2022/12/21 15:15:28;;;;;;;3.00;1.67;;;;;;;9.21;100.00;98715.44;5090868;28;20411;-80
2022/12/21 15:17:59;;;;;;;2.72;1.52;;;;;;;9.27;100.00;98747.22;5090261;28;20383;-80
2022/12/21 15:20:51;;;;;;;2.92;1.40;;;;;;;9.16;100.00;98729.56;5091283;28;20044;-80
2022/12/21 15:23:23;;;;;;;2.50;1.35;;;;;;;9.27;100.00;98749.13;5089025;28;20048;-80
2022/12/21 15:25:54;;;;;;;3.65;1.98;;;;;;;9.22;100.00;98744.25;5090617;28;20048;-80
2022/12/21 15:28:25;;;;;;;5.43;1.80;;;;;;;9.17;100.00;98741.28;5090647;28;20051;-80
2022/12/21 15:30:56;;;;;;;2.42;1.35;;;;;;;9.17;100.00;98741.28;5090575;28;20059;-80
2022/12/21 15:33:31;;;;;;;3.95;1.42;;;;;;;9.22;100.00;98757.81;5087025;28;20040;-80
2022/12/21 15:36:01;;;;;;;4.03;1.50;;;;;;;9.19;100.00;98763.59;5087565;28;20054;-80
2022/12/21 15:38:45;;;;;;;1.77;1.50;;;;;;;9.17;100.00;98757.53;5087505;28;20043;-80
2022/12/21 15:41:19;;;;;;;4.60;1.83;;;;;;;9.23;100.00;98758.63;5088605;28;20052;-80
2022/12/21 15:43:49;;;;;;;4.13;1.60;;;;;;;9.01;100.00;98745.81;5087620;28;20044;-80
2022/12/21 15:46:20;;;;;;;2.92;1.90;;;;;;;9.04;100.00;98736.47;5085652;28;20044;-80
2022/12/21 15:48:54;;;;;;;8.73;1.67;;;;;;;8.95;100.00;98738.41;5088300;28;20054;-80
2022/12/21 15:51:26;;;;;;;3.50;1.73;;;;;;;8.96;100.00;98758.25;5085670;28;20139;-80
2022/12/21 15:54:04;;;;;;;12.52;6.32;;;;;;;9.02;100.00;98769.19;5083703;28;20043;-80
2022/12/21 15:56:31;;;;;;;13.40;6.50;;;;;;;9.15;100.00;98756.88;5086552;28;20063;-80
2022/12/21 15:58:58;;;;;;;12.13;5.68;;;;;;;9.30;100.00;98768.56;5088249;28;20333;-80
2022/12/21 16:01:27;;;;;;;8.10;4.75;;;;;;;9.26;100.00;98761.84;5076111;28;20066;-80
2022/12/21 16:03:55;;;;;;;10.73;5.50;;;;;;;9.16;100.00;98764.81;5080653;28;20111;-80
2022/12/21 16:06:24;;;;;;;8.77;4.30;;;;;;;9.11;100.00;98756.41;5088403;28;20052;-80
2022/12/21 16:08:53;;;;;;;7.32;3.78;;;;;;;8.96;100.00;98766.41;5087094;28;20051;-80
2022/12/21 16:11:27;;;;;;;4.55;2.78;;;;;;;9.09;100.00;98771.16;5088420;28;20465;-80
2022/12/21 16:14:00;;;;;;;6.35;3.75;;;;;;;9.07;100.00;98770.53;5088003;28;20048;-80
2022/12/21 16:16:27;;;;;;;4.30;3.05;;;;;;;9.04;100.00;98769.00;5076875;28;20094;-80
2022/12/21 16:18:57;;;;;;;6.63;2.65;;;;;;;9.01;100.00;98775.63;5083475;28;20497;-80
2022/12/21 16:21:32;;;;;;;3.85;2.40;;;;;;;8.91;100.00;98766.09;5077308;28;20045;-81
2022/12/21 16:24:03;;;;;;;6.20;3.22;;;;;;;8.80;100.00;98751.94;5079877;28;20121;-80
2022/12/21 16:26:31;;;;;;;8.82;5.22;;;;;;;8.99;100.00;98747.03;5090310;28;20056;-80
2022/12/21 16:29:00;;;;;;;10.55;5.07;;;;;;;8.93;100.00;98769.47;5090098;28;20048;-80
2022/12/21 16:31:45;;;;;;;8.20;5.28;;;;;;;9.02;100.00;98787.34;5091924;28;20047;-80
2022/12/21 16:34:22;;;;;;;6.78;3.42;;;;;;;8.98;100.00;98783.31;5084804;28;20461;-80
2022/12/21 16:36:49;;;;;;;5.72;3.22;;;;;;;8.79;100.00;98773.81;5090917;28;20055;-80
2022/12/21 16:39:17;;;;;;;6.28;2.35;;;;;;;8.79;100.00;98785.53;5093484;28;20499;-80
2022/12/21 16:41:45;;;;;;;8.30;3.10;;;;;;;8.73;100.00;98780.84;5093496;28;20040;-80
2022/12/21 16:44:33;;;;;;;5.80;3.05;;;;;;;8.69;100.00;98784.94;5093043;28;20051;-80
2022/12/21 16:47:16;;;;;;;4.20;2.22;;;;;;;8.66;100.00;98777.16;5106879;28;20048;-81
2022/12/21 16:49:45;;;;;;;3.58;2.65;;;;;;;8.54;100.00;98763.19;5088477;28;20091;-81
2022/12/21 16:52:40;;;;;;;4.72;2.90;;;;;;;8.41;100.00;98741.25;5093945;28;20063;-81
2022/12/21 16:55:16;;;;;;;5.53;2.83;;;;;;;8.39;100.00;98746.84;5077266;28;20046;-81
2022/12/21 16:57:45;;;;;;;6.82;2.80;;;;;;;8.52;100.00;98777.94;5093179;28;20573;-82
2022/12/21 17:00:18;;;;;;;4.32;3.20;;;;;;;8.54;100.00;98770.50;5093711;28;20139;-81
2022/12/21 17:02:49;;;;;;;8.40;2.75;;;;;;;8.46;100.00;98750.56;5085191;28;20049;-81
2022/12/21 17:05:22;;;;;;;4.88;2.45;;;;;;;8.45;100.00;98761.59;5091930;28;20044;-81
2022/12/21 17:07:49;;;;;;;4.07;2.85;;;;;;;8.40;100.00;98764.81;5094025;28;20079;-81
2022/12/21 17:10:17;;;;;;;6.25;3.28;;;;;;;8.37;100.00;98739.91;5093689;28;20044;-81
2022/12/21 17:12:46;;;;;;;6.15;2.92;;;;;;;8.25;100.00;98723.25;5091892;28;20050;-81
2022/12/21 17:15:29;;;;;;;6.45;3.28;;;;;;;8.27;100.00;98756.44;5089137;28;20101;-81
2022/12/21 17:17:55;;;;;;;6.85;3.55;;;;;;;8.14;100.00;98738.91;5092249;28;20059;-81
2022/12/21 17:20:30;;;;;;;4.78;2.90;;;;;;;8.16;100.00;98746.88;5093428;28;20048;-81
2022/12/21 17:23:05;;;;;;;5.97;2.63;;;;;;;8.07;100.00;98739.78;5092317;28;20044;-80
2022/12/21 17:25:42;;;;;;;4.45;2.47;;;;;;;7.89;100.00;98749.06;5085235;28;20060;-81
2022/12/21 17:28:09;;;;;;;5.80;2.67;;;;;;;7.85;100.00;98766.66;5073364;28;20521;-79
2022/12/21 17:30:38;;;;;;;3.35;2.33;;;;;;;7.72;100.00;98752.84;5086851;28;20048;-80
2022/12/21 17:33:11;;;;;;;4.03;2.50;;;;;;;7.76;100.00;98765.84;5094299;28;20044;-78
2022/12/21 17:35:39;;;;;;;4.63;2.58;;;;;;;7.71;100.00;98737.66;5091761;28;20057;-79
2022/12/21 17:38:05;;;;;;;3.95;2.65;;;;;;;7.75;100.00;98756.06;5097123;28;20052;-79
2022/12/21 17:40:32;;;;;;;4.50;2.83;;;;;;;7.60;100.00;98758.66;5092779;28;20052;-79
2022/12/21 17:42:58;;;;;;;3.67;2.85;;;;;;;7.65;100.00;98747.31;5092830;28;20483;-79
2022/12/21 17:45:25;;;;;;;4.68;2.35;;;;;;;7.77;100.00;98745.91;5090221;28;20058;-79
2022/12/21 17:47:52;;;;;;;6.13;2.80;;;;;;;7.75;100.00;98760.63;5086412;28;20126;-79
2022/12/21 17:50:22;;;;;;;5.13;2.63;;;;;;;7.59;100.00;98737.19;5091682;28;20063;-79
2022/12/21 17:52:50;;;;;;;5.00;3.22;;;;;;;7.48;100.00;98724.88;5086434;28;20147;-79
2022/12/21 17:55:21;;;;;;;5.72;3.25;;;;;;;7.67;100.00;98760.66;5093073;28;20048;-79
2022/12/21 17:57:48;;;;;;;5.25;2.92;;;;;;;7.74;100.00;98759.78;5079172;28;20049;-79
2022/12/21 18:00:17;;;;;;;7.22;3.33;;;;;;;7.76;100.00;98756.91;5072079;28;20048;-79
2022/12/21 18:02:45;;;;;;;4.80;2.70;;;;;;;7.79;100.00;98770.06;5089706;28;20040;-79
2022/12/21 18:05:14;;;;;;;4.00;2.55;;;;;;;7.67;100.00;98739.84;5092316;28;20055;-79
2022/12/21 18:07:42;;;;;;;5.38;2.47;;;;;;;7.77;100.00;98755.88;5092041;28;20484;-79
2022/12/21 18:10:16;;;;;;;4.57;2.28;;;;;;;7.79;100.00;98753.84;5105858;28;20075;-79
2022/12/21 18:12:44;;;;;;;4.88;2.72;;;;;;;7.72;100.00;98742.88;5091653;28;20048;-80
2022/12/21 18:15:11;;;;;;;5.65;2.50;;;;;;;7.68;100.00;98741.56;5092950;28;20427;-79
2022/12/21 18:17:38;;;;;;;3.35;2.45;;;;;;;7.71;100.00;98760.13;5084436;28;20044;-78
2022/12/21 18:20:12;;;;;;;6.97;3.38;;;;;;;7.77;100.00;98774.81;5092089;28;20104;-80
2022/12/21 18:22:40;;;;;;;5.10;2.25;;;;;;;7.78;100.00;98766.53;5091403;28;20040;-80
2022/12/21 18:25:12;;;;;;;4.75;2.10;;;;;;;7.82;100.00;98756.19;5072992;28;20140;-80
2022/12/21 18:27:41;;;;;;;3.63;1.90;;;;;;;7.85;100.00;98753.13;5071322;28;20132;-80
2022/12/21 18:30:11;;;;;;;7.10;1.92;;;;;;;7.88;100.00;98754.66;5075633;28;20039;-79
2022/12/21 18:32:38;;;;;;;5.00;1.85;;;;;;;7.84;100.00;98739.78;5090663;28;20070;-80
2022/12/21 18:35:07;;;;;;;5.38;1.85;;;;;;;7.90;100.00;98755.28;5087293;28;20041;-80
2022/12/21 18:37:34;;;;;;;5.47;2.45;;;;;;;7.84;100.00;98754.13;5088538;28;20051;-79
2022/12/21 18:40:00;;;;;;;41.65;15.55;;;;;;;7.80;100.00;98747.41;5091745;28;20052;-79
2022/12/21 18:42:27;;;;;;;46.92;18.05;;;;;;;7.87;100.00;98750.25;5091548;28;20447;-80
2022/12/21 18:44:55;;;;;;;43.95;15.88;;;;;;;7.60;100.00;98707.25;5089149;28;20499;-80
2022/12/21 18:47:21;;;;;;;82.75;30.20;;;;;;;7.73;100.00;98746.44;5091560;28;20058;-80
2022/12/21 18:49:48;;;;;;;57.25;20.42;;;;;;;7.66;100.00;98719.22;5091893;28;20055;-81
2022/12/21 18:52:15;;;;;;;51.55;18.00;;;;;;;7.66;100.00;98712.97;5091106;28;20127;-80
2022/12/21 18:54:41;;;;;;;44.47;19.25;;;;;;;7.74;100.00;98734.59;5087386;28;20064;-80
2022/12/21 18:57:15;;;;;;;10.45;5.22;;;;;;;7.82;100.00;98742.66;5088609;28;20048;-80
2022/12/21 18:59:42;;;;;;;8.25;3.72;;;;;;;7.72;100.00;98723.09;5088560;28;20055;-80
2022/12/21 19:02:22;;;;;;;3.40;2.47;;;;;;;7.72;100.00;98721.25;5089104;28;20051;-80
2022/12/21 19:04:50;;;;;;;4.32;2.88;;;;;;;7.79;100.00;98724.06;5091526;28;20479;-80
2022/12/21 19:07:16;;;;;;;5.18;2.35;;;;;;;7.70;100.00;98709.75;5090305;28;20136;-80
2022/12/21 19:09:43;;;;;;;5.95;2.95;;;;;;;7.74;100.00;98718.38;5091286;28;20052;-80
2022/12/21 19:12:13;;;;;;;5.80;3.30;;;;;;;7.75;100.00;98717.31;5087847;28;20056;-80
2022/12/21 19:14:40;;;;;;;;;;;;;;;7.82;100.00;98723.72;5090885;28;20044;-80
2022/12/21 19:17:17;;;;;;;10.35;6.28;;;;;;;7.79;100.00;98724.06;5090798;28;19927;-80
2022/12/21 19:19:44;;;;;;;8.68;5.18;;;;;;;7.68;100.00;98706.38;5091402;28;20055;-80
2022/12/21 19:22:19;;;;;;;6.03;3.90;;;;;;;7.74;100.00;98718.38;5090543;28;20077;-80
2022/12/21 19:24:46;;;;;;;3.65;2.78;;;;;;;7.64;100.00;98702.34;5091476;28;20040;-80
2022/12/21 19:27:13;;;;;;;5.70;2.95;;;;;;;7.70;100.00;98707.03;5086822;28;20134;-80
2022/12/21 19:29:40;;;;;;;5.93;2.70;;;;;;;7.79;100.00;98710.53;5089462;28;20445;-80
2022/12/21 19:32:07;;;;;;;5.38;3.10;;;;;;;7.62;100.00;98693.56;5100161;28;20094;-80
2022/12/21 19:34:35;;;;;;;4.28;2.90;;;;;;;7.55;100.00;98688.00;5103260;28;20058;-81
2022/12/21 19:37:03;;;;;;;8.27;3.50;;;;;;;7.63;100.00;98689.81;5082317;28;20050;-80
2022/12/21 19:39:34;;;;;;;5.20;2.67;;;;;;;7.59;100.00;98677.69;5071263;28;20106;-80
2022/12/21 19:42:01;;;;;;;6.20;3.25;;;;;;;7.69;100.00;98710.75;5082286;28;20051;-80
2022/12/21 19:44:31;;;;;;;5.43;2.80;;;;;;;7.66;100.00;98683.22;5090112;28;20052;-80
2022/12/21 19:46:57;;;;;;;5.03;3.05;;;;;;;7.56;100.00;98676.16;5087287;28;20075;-80
2022/12/21 19:49:25;;;;;;;4.35;2.58;;;;;;;7.64;100.00;98696.91;5091039;28;20059;-80
2022/12/21 19:51:53;;;;;;;4.78;2.55;;;;;;;7.74;100.00;98688.59;5090671;28;20058;-80
2022/12/21 19:54:20;;;;;;;6.60;2.78;;;;;;;7.80;100.00;98696.00;5071339;28;20075;-80
2022/12/21 19:56:51;;;;;;;5.00;2.92;;;;;;;7.65;100.00;98692.34;5083881;28;20040;-81
2022/12/21 19:59:20;;;;;;;4.90;2.72;;;;;;;7.62;100.00;98697.09;5089800;28;20044;-80
2022/12/21 20:01:47;;;;;;;5.40;2.87;;;;;;;7.69;100.00;98699.94;5089008;28;20051;-80
2022/12/21 20:04:18;;;;;;;4.30;2.38;;;;;;;7.63;100.00;98684.41;5069558;28;20646;-80